sensor_id;sensor_type;location;lat;lon;timestamp;pressure;altitude;pressure_sealevel;temperature;humidity
64294;BME280;50636;45.596;5.258;2023-07-13T00:01:29;98800.91;;;23.09;59.81
64294;BME280;50636;45.596;5.258;2023-07-13T00:03:56;98796.66;;;23.08;60.00
64294;BME280;50636;45.596;5.258;2023-07-13T00:06:22;98795.34;;;23.01;60.19
64294;BME280;50636;45.596;5.258;2023-07-13T00:08:48;98807.09;;;23.00;60.08
64294;BME280;50636;45.596;5.258;2023-07-13T00:11:14;98797.50;;;22.99;60.62
64294;BME280;50636;45.596;5.258;2023-07-13T00:13:40;98793.72;;;23.00;60.69
64294;BME280;50636;45.596;5.258;2023-07-13T00:16:06;98795.09;;;23.02;60.77
64294;BME280;50636;45.596;5.258;2023-07-13T00:18:31;98789.44;;;23.04;60.98
64294;BME280;50636;45.596;5.258;2023-07-13T00:20:57;98788.91;;;23.07;61.29
64294;BME280;50636;45.596;5.258;2023-07-13T00:23:30;98785.38;;;23.11;61.13
64294;BME280;50636;45.596;5.258;2023-07-13T00:25:56;98798.75;;;23.11;61.06
64294;BME280;50636;45.596;5.258;2023-07-13T00:28:22;98789.44;;;23.04;60.87
64294;BME280;50636;45.596;5.258;2023-07-13T00:30:48;98793.22;;;23.03;60.91
64294;BME280;50636;45.596;5.258;2023-07-13T00:33:13;98791.56;;;23.07;60.92
64294;BME280;50636;45.596;5.258;2023-07-13T00:35:38;98796.66;;;23.08;60.59
64294;BME280;50636;45.596;5.258;2023-07-13T00:38:05;98796.09;;;23.11;60.99
64294;BME280;50636;45.596;5.258;2023-07-13T00:40:30;98788.78;;;23.22;60.62
64294;BME280;50636;45.596;5.258;2023-07-13T00:42:57;98796.22;;;23.30;60.46
64294;BME280;50636;45.596;5.258;2023-07-13T00:47:48;98791.22;;;23.48;60.24
64294;BME280;50636;45.596;5.258;2023-07-13T00:50:14;98789.00;;;23.55;60.08
64294;BME280;50636;45.596;5.258;2023-07-13T00:52:40;98795.69;;;23.58;60.00
64294;BME280;50636;45.596;5.258;2023-07-13T00:55:07;98790.84;;;23.60;59.66
64294;BME280;50636;45.596;5.258;2023-07-13T00:57:34;98806.63;;;23.61;59.15
64294;BME280;50636;45.596;5.258;2023-07-13T01:00:00;98802.91;;;23.57;59.24
64294;BME280;50636;45.596;5.258;2023-07-13T01:02:31;98802.41;;;23.55;58.92
64294;BME280;50636;45.596;5.258;2023-07-13T01:04:57;98800.78;;;23.54;58.97
64294;BME280;50636;45.596;5.258;2023-07-13T01:07:22;98814.25;;;23.49;58.03
64294;BME280;50636;45.596;5.258;2023-07-13T01:09:48;98813.16;;;23.50;58.24
64294;BME280;50636;45.596;5.258;2023-07-13T01:12:13;98819.53;;;23.54;58.11
64294;BME280;50636;45.596;5.258;2023-07-13T01:14:39;98817.91;;;23.58;58.32
64294;BME280;50636;45.596;5.258;2023-07-13T01:17:05;98808.78;;;23.59;57.87
64294;BME280;50636;45.596;5.258;2023-07-13T01:19:37;98811.72;;;23.63;57.89
64294;BME280;50636;45.596;5.258;2023-07-13T01:22:14;98821.56;;;23.67;57.51
64294;BME280;50636;45.596;5.258;2023-07-13T01:24:40;98817.31;;;23.66;57.23
64294;BME280;50636;45.596;5.258;2023-07-13T01:27:08;98817.31;;;23.66;57.09
64294;BME280;50636;45.596;5.258;2023-07-13T01:29:34;98811.09;;;23.71;57.09
64294;BME280;50636;45.596;5.258;2023-07-13T01:32:00;98809.72;;;23.73;56.88
64294;BME280;50636;45.596;5.258;2023-07-13T01:34:26;98811.03;;;23.76;56.25
64294;BME280;50636;45.596;5.258;2023-07-13T01:36:52;98816.13;;;23.78;56.19
64294;BME280;50636;45.596;5.258;2023-07-13T01:39:21;98811.84;;;23.77;55.96
64294;BME280;50636;45.596;5.258;2023-07-13T01:41:47;98812.91;;;23.76;55.51
64294;BME280;50636;45.596;5.258;2023-07-13T01:44:12;98808.97;;;23.68;55.27
64294;BME280;50636;45.596;5.258;2023-07-13T01:46:37;98813.88;;;23.61;54.79
64294;BME280;50636;45.596;5.258;2023-07-13T01:49:03;98803.44;;;23.59;54.12
64294;BME280;50636;45.596;5.258;2023-07-13T01:51:28;98811.00;;;23.52;54.21
64294;BME280;50636;45.596;5.258;2023-07-13T01:53:54;98815.31;;;23.48;54.28
64294;BME280;50636;45.596;5.258;2023-07-13T01:56:20;98816.41;;;23.47;53.50
64294;BME280;50636;45.596;5.258;2023-07-13T01:58:45;98812.13;;;23.46;52.78
64294;BME280;50636;45.596;5.258;2023-07-13T02:01:11;98812.34;;;23.55;52.96
64294;BME280;50636;45.596;5.258;2023-07-13T02:03:37;98804.31;;;23.49;52.12
64294;BME280;50636;45.596;5.258;2023-07-13T02:06:02;98809.75;;;23.44;52.25
64294;BME280;50636;45.596;5.258;2023-07-13T02:08:28;98800.69;;;23.40;51.79
64294;BME280;50636;45.596;5.258;2023-07-13T02:10:54;98802.03;;;23.38;51.17
64294;BME280;50636;45.596;5.258;2023-07-13T02:13:19;98808.94;;;23.44;51.18
64294;BME280;50636;45.596;5.258;2023-07-13T02:15:44;98807.81;;;23.50;51.03
64294;BME280;50636;45.596;5.258;2023-07-13T02:18:10;98804.06;;;23.51;51.06
64294;BME280;50636;45.596;5.258;2023-07-13T02:20:35;98807.81;;;23.50;51.08
64294;BME280;50636;45.596;5.258;2023-07-13T02:23:01;98810.53;;;23.45;51.06
64294;BME280;50636;45.596;5.258;2023-07-13T02:25:26;98822.09;;;23.40;51.03
64294;BME280;50636;45.596;5.258;2023-07-13T02:27:52;98822.63;;;23.42;51.13
64294;BME280;50636;45.596;5.258;2023-07-13T02:30:17;98821.78;;;23.47;51.01
64294;BME280;50636;45.596;5.258;2023-07-13T02:32:43;98830.06;;;23.50;51.22
64294;BME280;50636;45.596;5.258;2023-07-13T02:35:09;98831.38;;;23.48;51.51
64294;BME280;50636;45.596;5.258;2023-07-13T02:37:35;98830.78;;;23.56;53.16
64294;BME280;50636;45.596;5.258;2023-07-13T02:40:00;98843.63;;;23.59;55.66
64294;BME280;50636;45.596;5.258;2023-07-13T02:42:27;98864.13;;;23.45;57.76
64294;BME280;50636;45.596;5.258;2023-07-13T02:44:53;98880.22;;;23.00;58.53
64294;BME280;50636;45.596;5.258;2023-07-13T02:47:18;98878.69;;;22.13;58.88
64294;BME280;50636;45.596;5.258;2023-07-13T02:49:44;98888.28;;;21.12;61.49
64294;BME280;50636;45.596;5.258;2023-07-13T02:52:09;98882.16;;;20.38;65.34
64294;BME280;50636;45.596;5.258;2023-07-13T02:54:35;98887.25;;;19.97;70.46
64294;BME280;50636;45.596;5.258;2023-07-13T02:57:00;98895.38;;;19.75;75.75
64294;BME280;50636;45.596;5.258;2023-07-13T02:59:26;98898.41;;;19.56;79.90
64294;BME280;50636;45.596;5.258;2023-07-13T03:01:51;98892.75;;;19.48;83.60
64294;BME280;50636;45.596;5.258;2023-07-13T03:04:17;98896.22;;;19.53;86.45
64294;BME280;50636;45.596;5.258;2023-07-13T03:06:44;98891.91;;;19.47;88.04
64294;BME280;50636;45.596;5.258;2023-07-13T03:09:10;98894.75;;;19.35;89.96
64294;BME280;50636;45.596;5.258;2023-07-13T03:11:37;98894.72;;;19.30;91.78
64294;BME280;50636;45.596;5.258;2023-07-13T03:14:03;98903.56;;;19.36;92.54
64294;BME280;50636;45.596;5.258;2023-07-13T03:16:28;98914.13;;;19.31;93.16
64294;BME280;50636;45.596;5.258;2023-07-13T03:18:54;98909.91;;;19.35;93.69
64294;BME280;50636;45.596;5.258;2023-07-13T03:21:20;98914.22;;;19.41;93.95
64294;BME280;50636;45.596;5.258;2023-07-13T03:23:45;98919.69;;;19.56;95.38
64294;BME280;50636;45.596;5.258;2023-07-13T03:26:14;98930.13;;;19.63;94.79
64294;BME280;50636;45.596;5.258;2023-07-13T03:28:39;98926.34;;;19.54;94.38
64294;BME280;50636;45.596;5.258;2023-07-13T03:31:06;98937.22;;;19.52;94.09
64294;BME280;50636;45.596;5.258;2023-07-13T03:33:32;98938.31;;;19.56;93.86
64294;BME280;50636;45.596;5.258;2023-07-13T03:35:58;98941.69;;;19.47;93.24
64294;BME280;50636;45.596;5.258;2023-07-13T03:38:23;98956.47;;;19.32;93.54
64294;BME280;50636;45.596;5.258;2023-07-13T03:40:49;98960.47;;;19.08;93.74
64294;BME280;50636;45.596;5.258;2023-07-13T03:43:14;98961.91;;;18.76;94.77
64294;BME280;50636;45.596;5.258;2023-07-13T03:45:40;98960.09;;;18.38;95.21
64294;BME280;50636;45.596;5.258;2023-07-13T03:48:05;98969.06;;;17.98;96.15
64294;BME280;50636;45.596;5.258;2023-07-13T03:50:31;98966.28;;;17.59;97.23
64294;BME280;50636;45.596;5.258;2023-07-13T03:52:59;98969.25;;;17.34;98.87
64294;BME280;50636;45.596;5.258;2023-07-13T03:55:25;98969.78;;;17.19;100.00
64294;BME280;50636;45.596;5.258;2023-07-13T03:57:58;98964.09;;;17.27;100.00
64294;BME280;50636;45.596;5.258;2023-07-13T04:00:24;98952.03;;;17.20;100.00
64294;BME280;50636;45.596;5.258;2023-07-13T04:02:49;98947.81;;;17.07;100.00
64294;BME280;50636;45.596;5.258;2023-07-13T04:05:15;98956.38;;;17.26;100.00
64294;BME280;50636;45.596;5.258;2023-07-13T04:07:41;98954.34;;;17.45;100.00
64294;BME280;50636;45.596;5.258;2023-07-13T04:10:06;98967.09;;;17.31;100.00
64294;BME280;50636;45.596;5.258;2023-07-13T04:12:32;98958.78;;;17.27;100.00
64294;BME280;50636;45.596;5.258;2023-07-13T04:14:57;98954.28;;;16.99;100.00
64294;BME280;50636;45.596;5.258;2023-07-13T04:17:23;98954.09;;;16.77;100.00
64294;BME280;50636;45.596;5.258;2023-07-13T04:19:48;98960.00;;;16.55;100.00
64294;BME280;50636;45.596;5.258;2023-07-13T04:22:14;98966.00;;;16.39;100.00
64294;BME280;50636;45.596;5.258;2023-07-13T04:24:39;98958.53;;;16.24;100.00
64294;BME280;50636;45.596;5.258;2023-07-13T04:27:06;98954.72;;;16.20;100.00
64294;BME280;50636;45.596;5.258;2023-07-13T04:29:31;98960.94;;;16.14;100.00
64294;BME280;50636;45.596;5.258;2023-07-13T04:31:56;98957.47;;;16.13;100.00
64294;BME280;50636;45.596;5.258;2023-07-13T04:34:22;98956.44;;;16.14;100.00
64294;BME280;50636;45.596;5.258;2023-07-13T04:36:49;98955.16;;;16.17;100.00
64294;BME280;50636;45.596;5.258;2023-07-13T04:39:15;98952.66;;;16.22;100.00
64294;BME280;50636;45.596;5.258;2023-07-13T04:41:40;98950.31;;;16.26;100.00
64294;BME280;50636;45.596;5.258;2023-07-13T04:44:06;98950.09;;;16.15;100.00
64294;BME280;50636;45.596;5.258;2023-07-13T04:46:31;98956.66;;;16.13;100.00
64294;BME280;50636;45.596;5.258;2023-07-13T04:48:56;98960.38;;;16.12;100.00
64294;BME280;50636;45.596;5.258;2023-07-13T04:51:23;98961.41;;;16.23;100.00
64294;BME280;50636;45.596;5.258;2023-07-13T04:53:49;98950.78;;;16.58;100.00
64294;BME280;50636;45.596;5.258;2023-07-13T04:56:14;98953.75;;;16.73;100.00
64294;BME280;50636;45.596;5.258;2023-07-13T04:58:40;98961.94;;;16.84;100.00
64294;BME280;50636;45.596;5.258;2023-07-13T05:01:06;98960.19;;;16.89;100.00
64294;BME280;50636;45.596;5.258;2023-07-13T05:03:31;98960.75;;;16.91;100.00
64294;BME280;50636;45.596;5.258;2023-07-13T05:05:58;98973.34;;;16.84;100.00
64294;BME280;50636;45.596;5.258;2023-07-13T05:08:23;98966.44;;;16.83;100.00
64294;BME280;50636;45.596;5.258;2023-07-13T05:10:49;98967.91;;;16.79;100.00
64294;BME280;50636;45.596;5.258;2023-07-13T05:13:15;98973.66;;;16.88;100.00
64294;BME280;50636;45.596;5.258;2023-07-13T05:15:40;98970.63;;;17.08;100.00
64294;BME280;50636;45.596;5.258;2023-07-13T05:18:06;98972.44;;;17.19;100.00
64294;BME280;50636;45.596;5.258;2023-07-13T05:20:31;98976.41;;;17.33;100.00
64294;BME280;50636;45.596;5.258;2023-07-13T05:22:56;98993.22;;;17.68;100.00
64294;BME280;50636;45.596;5.258;2023-07-13T05:25:22;98980.75;;;17.97;100.00
64294;BME280;50636;45.596;5.258;2023-07-13T05:27:47;98981.78;;;18.13;100.00
64294;BME280;50636;45.596;5.258;2023-07-13T05:30:13;98974.13;;;18.16;100.00
64294;BME280;50636;45.596;5.258;2023-07-13T05:32:38;98969.97;;;18.43;100.00
64294;BME280;50636;45.596;5.258;2023-07-13T05:35:04;98975.09;;;18.66;100.00
64294;BME280;50636;45.596;5.258;2023-07-13T05:37:30;98972.41;;;18.83;100.00
64294;BME280;50636;45.596;5.258;2023-07-13T05:39:55;98976.69;;;19.06;100.00
64294;BME280;50636;45.596;5.258;2023-07-13T05:42:21;98977.91;;;19.21;100.00
64294;BME280;50636;45.596;5.258;2023-07-13T05:44:46;98979.25;;;19.23;100.00
64294;BME280;50636;45.596;5.258;2023-07-13T05:47:12;98983.44;;;19.41;100.00
64294;BME280;50636;45.596;5.258;2023-07-13T05:49:39;98984.22;;;19.69;100.00
64294;BME280;50636;45.596;5.258;2023-07-13T05:52:04;98987.06;;;19.84;100.00
64294;BME280;50636;45.596;5.258;2023-07-13T05:54:30;98986.50;;;20.14;100.00
64294;BME280;50636;45.596;5.258;2023-07-13T05:56:55;98981.31;;;20.78;100.00
64294;BME280;50636;45.596;5.258;2023-07-13T05:59:21;98977.56;;;22.29;100.00
64294;BME280;50636;45.596;5.258;2023-07-13T06:01:46;98993.88;;;22.43;98.85
64294;BME280;50636;45.596;5.258;2023-07-13T06:04:12;99000.56;;;21.99;97.90
64294;BME280;50636;45.596;5.258;2023-07-13T06:06:37;98999.97;;;21.51;98.71
64294;BME280;50636;45.596;5.258;2023-07-13T06:09:03;99001.31;;;21.48;100.00
64294;BME280;50636;45.596;5.258;2023-07-13T06:11:28;99007.78;;;21.78;100.00
64294;BME280;50636;45.596;5.258;2023-07-13T06:13:55;99008.31;;;22.01;100.00
64294;BME280;50636;45.596;5.258;2023-07-13T06:16:21;99009.13;;;22.22;100.00
64294;BME280;50636;45.596;5.258;2023-07-13T06:18:47;99008.84;;;22.39;100.00
64294;BME280;50636;45.596;5.258;2023-07-13T06:21:13;99006.16;;;22.54;100.00
64294;BME280;50636;45.596;5.258;2023-07-13T06:23:39;98994.09;;;23.32;100.00
64294;BME280;50636;45.596;5.258;2023-07-13T06:26:05;99005.25;;;25.25;100.00
64294;BME280;50636;45.596;5.258;2023-07-13T06:28:31;98988.91;;;27.72;92.46
64294;BME280;50636;45.596;5.258;2023-07-13T06:31:00;98992.75;;;29.14;82.69
64294;BME280;50636;45.596;5.258;2023-07-13T06:33:26;98992.78;;;28.65;78.31
64294;BME280;50636;45.596;5.258;2023-07-13T06:35:51;99008.03;;;27.84;78.80
64294;BME280;50636;45.596;5.258;2023-07-13T06:38:17;99009.50;;;28.36;84.14
64294;BME280;50636;45.596;5.258;2023-07-13T06:40:43;99007.34;;;30.26;81.34
64294;BME280;50636;45.596;5.258;2023-07-13T06:43:08;98993.03;;;31.99;77.43
64294;BME280;50636;45.596;5.258;2023-07-13T06:45:55;98992.44;;;33.25;72.74
64294;BME280;50636;45.596;5.258;2023-07-13T06:48:19;98997.41;;;33.76;67.76
64294;BME280;50636;45.596;5.258;2023-07-13T06:50:45;98992.25;;;34.02;67.08
64294;BME280;50636;45.596;5.258;2023-07-13T06:53:11;98988.53;;;34.23;69.39
64294;BME280;50636;45.596;5.258;2023-07-13T06:55:37;98996.16;;;34.65;71.38
64294;BME280;50636;45.596;5.258;2023-07-13T06:58:03;99006.25;;;34.96;72.04
64294;BME280;50636;45.596;5.258;2023-07-13T07:00:28;99004.03;;;35.18;73.73
64294;BME280;50636;45.596;5.258;2023-07-13T07:02:54;99004.25;;;35.68;75.61
64294;BME280;50636;45.596;5.258;2023-07-13T07:05:19;99005.13;;;36.87;73.80
64294;BME280;50636;45.596;5.258;2023-07-13T07:07:49;98999.69;;;38.23;72.55
64294;BME280;50636;45.596;5.258;2023-07-13T07:10:15;99001.50;;;39.04;68.59
64294;BME280;50636;45.596;5.258;2023-07-13T07:12:41;99014.31;;;39.66;67.62
64294;BME280;50636;45.596;5.258;2023-07-13T07:15:06;99012.13;;;38.58;62.44
64294;BME280;50636;45.596;5.258;2023-07-13T07:17:32;99016.63;;;36.47;66.10
64294;BME280;50636;45.596;5.258;2023-07-13T07:19:57;99006.63;;;35.69;68.36
64294;BME280;50636;45.596;5.258;2023-07-13T07:22:22;99010.09;;;35.66;68.83
64294;BME280;50636;45.596;5.258;2023-07-13T07:24:51;99024.78;;;35.42;65.23
64294;BME280;50636;45.596;5.258;2023-07-13T07:27:16;99022.47;;;34.73;65.89
64294;BME280;50636;45.596;5.258;2023-07-13T07:29:42;99029.56;;;34.14;65.00
64294;BME280;50636;45.596;5.258;2023-07-13T07:32:07;99021.50;;;34.81;68.47
64294;BME280;50636;45.596;5.258;2023-07-13T07:34:33;99017.38;;;35.23;67.42
64294;BME280;50636;45.596;5.258;2023-07-13T07:37:01;99007.28;;;35.82;66.06
64294;BME280;50636;45.596;5.258;2023-07-13T07:39:27;99007.53;;;35.96;65.62
64294;BME280;50636;45.596;5.258;2023-07-13T07:41:53;99014.22;;;35.05;68.15
64294;BME280;50636;45.596;5.258;2023-07-13T07:44:18;99008.03;;;33.81;68.05
64294;BME280;50636;45.596;5.258;2023-07-13T07:46:43;99014.16;;;32.60;71.12
64294;BME280;50636;45.596;5.258;2023-07-13T07:49:09;99017.81;;;32.43;74.87
64294;BME280;50636;45.596;5.258;2023-07-13T07:51:35;99016.84;;;33.09;72.68
64294;BME280;50636;45.596;5.258;2023-07-13T07:54:01;99013.59;;;34.00;71.60
64294;BME280;50636;45.596;5.258;2023-07-13T07:56:26;99014.50;;;35.00;69.95
64294;BME280;50636;45.596;5.258;2023-07-13T07:58:52;99013.25;;;35.68;66.80
64294;BME280;50636;45.596;5.258;2023-07-13T08:01:17;99012.47;;;36.33;65.22
64294;BME280;50636;45.596;5.258;2023-07-13T08:03:43;99006.56;;;37.34;64.82
64294;BME280;50636;45.596;5.258;2023-07-13T08:06:08;99012.34;;;37.97;62.41
64294;BME280;50636;45.596;5.258;2023-07-13T08:08:34;99007.06;;;38.60;58.20
64294;BME280;50636;45.596;5.258;2023-07-13T08:11:02;99015.66;;;39.17;54.64
64294;BME280;50636;45.596;5.258;2023-07-13T08:13:28;99019.00;;;39.66;53.46
64294;BME280;50636;45.596;5.258;2023-07-13T08:15:53;99013.66;;;40.09;51.35
64294;BME280;50636;45.596;5.258;2023-07-13T08:18:18;99002.63;;;40.63;51.40
64294;BME280;50636;45.596;5.258;2023-07-13T08:20:44;99007.28;;;41.20;50.28
64294;BME280;50636;45.596;5.258;2023-07-13T08:23:10;99001.38;;;41.91;51.86
64294;BME280;50636;45.596;5.258;2023-07-13T08:25:35;98999.22;;;42.21;52.02
64294;BME280;50636;45.596;5.258;2023-07-13T08:28:01;99011.59;;;42.02;46.06
64294;BME280;50636;45.596;5.258;2023-07-13T08:30:27;99018.91;;;42.23;47.76
64294;BME280;50636;45.596;5.258;2023-07-13T08:32:53;99007.47;;;42.24;47.31
64294;BME280;50636;45.596;5.258;2023-07-13T08:35:18;99017.16;;;42.43;46.67
64294;BME280;50636;45.596;5.258;2023-07-13T08:37:44;99014.41;;;42.88;49.42
64294;BME280;50636;45.596;5.258;2023-07-13T08:40:10;99018.59;;;43.00;49.32
64294;BME280;50636;45.596;5.258;2023-07-13T08:42:37;99012.22;;;43.41;51.61
64294;BME280;50636;45.596;5.258;2023-07-13T08:45:20;99017.25;;;44.04;52.00
64294;BME280;50636;45.596;5.258;2023-07-13T08:48:05;99008.38;;;43.93;47.94
64294;BME280;50636;45.596;5.258;2023-07-13T08:50:35;99012.63;;;42.22;47.89
64294;BME280;50636;45.596;5.258;2023-07-13T08:53:05;99005.09;;;42.72;48.40
64294;BME280;50636;45.596;5.258;2023-07-13T08:55:33;99007.78;;;43.17;47.80
64294;BME280;50636;45.596;5.258;2023-07-13T08:58:02;99003.75;;;42.49;46.42
64294;BME280;50636;45.596;5.258;2023-07-13T09:00:44;99027.38;;;40.95;52.00
64294;BME280;50636;45.596;5.258;2023-07-13T09:03:30;99020.16;;;39.54;51.72
64294;BME280;50636;45.596;5.258;2023-07-13T09:06:00;99020.06;;;39.36;47.73
64294;BME280;50636;45.596;5.258;2023-07-13T09:13:52;99022.50;;;38.79;53.76
64294;BME280;50636;45.596;5.258;2023-07-13T09:16:21;99019.47;;;39.86;49.50
64294;BME280;50636;45.596;5.258;2023-07-13T09:18:48;99014.03;;;40.18;48.82
64294;BME280;50636;45.596;5.258;2023-07-13T09:21:15;99026.06;;;38.86;49.04
64294;BME280;50636;45.596;5.258;2023-07-13T09:23:42;99027.91;;;38.23;51.76
64294;BME280;50636;45.596;5.258;2023-07-13T09:28:41;99029.75;;;40.25;54.61
64294;BME280;50636;45.596;5.258;2023-07-13T09:34:09;99030.53;;;40.97;54.26
64294;BME280;50636;45.596;5.258;2023-07-13T09:36:35;99030.75;;;39.48;53.57
64294;BME280;50636;45.596;5.258;2023-07-13T09:41:33;99034.72;;;38.95;52.12
64294;BME280;50636;45.596;5.258;2023-07-13T09:46:34;99030.13;;;40.16;47.93
64294;BME280;50636;45.596;5.258;2023-07-13T09:49:00;99028.00;;;39.45;51.49
64294;BME280;50636;45.596;5.258;2023-07-13T09:51:25;99032.19;;;38.65;52.98
64294;BME280;50636;45.596;5.258;2023-07-13T09:53:51;99039.09;;;38.48;53.57
64294;BME280;50636;45.596;5.258;2023-07-13T09:56:24;99032.09;;;39.10;53.61
64294;BME280;50636;45.596;5.258;2023-07-13T09:58:49;99037.25;;;38.63;49.77
64294;BME280;50636;45.596;5.258;2023-07-13T10:01:15;99042.28;;;37.75;52.04
64294;BME280;50636;45.596;5.258;2023-07-13T10:03:51;99044.34;;;38.23;55.86
64294;BME280;50636;45.596;5.258;2023-07-13T10:06:18;99037.38;;;38.74;52.69
64294;BME280;50636;45.596;5.258;2023-07-13T10:08:44;99029.03;;;39.26;47.43
64294;BME280;50636;45.596;5.258;2023-07-13T10:11:20;99033.13;;;39.57;49.19
64294;BME280;50636;45.596;5.258;2023-07-13T10:13:57;99042.31;;;40.08;51.63
64294;BME280;50636;45.596;5.258;2023-07-13T10:16:25;99042.34;;;40.76;54.50
64294;BME280;50636;45.596;5.258;2023-07-13T10:18:57;99042.31;;;41.01;54.29
64294;BME280;50636;45.596;5.258;2023-07-13T10:21:27;99045.44;;;41.07;46.09
64294;BME280;50636;45.596;5.258;2023-07-13T10:23:57;99043.88;;;40.99;47.02
64294;BME280;50636;45.596;5.258;2023-07-13T10:26:31;99041.09;;;41.27;43.77
64294;BME280;50636;45.596;5.258;2023-07-13T10:28:59;99042.63;;;41.36;42.91
64294;BME280;50636;45.596;5.258;2023-07-13T10:31:26;99032.84;;;41.06;43.83
64294;BME280;50636;45.596;5.258;2023-07-13T10:33:51;99037.06;;;39.60;42.80
64294;BME280;50636;45.596;5.258;2023-07-13T10:39:02;99047.81;;;40.29;51.46
64294;BME280;50636;45.596;5.258;2023-07-13T10:41:29;99032.50;;;40.79;46.05
64294;BME280;50636;45.596;5.258;2023-07-13T10:43:55;99031.34;;;40.76;50.06
64294;BME280;50636;45.596;5.258;2023-07-13T10:46:23;99025.41;;;40.99;49.93
64294;BME280;50636;45.596;5.258;2023-07-13T10:48:53;99027.00;;;40.71;47.58
64294;BME280;50636;45.596;5.258;2023-07-13T10:51:20;99030.13;;;39.94;46.16
64294;BME280;50636;45.596;5.258;2023-07-13T10:53:46;99030.13;;;39.94;49.41
64294;BME280;50636;45.596;5.258;2023-07-13T10:58:46;99007.59;;;39.49;42.36
64294;BME280;50636;45.596;5.258;2023-07-13T11:01:14;99018.06;;;39.26;48.79
64294;BME280;50636;45.596;5.258;2023-07-13T11:06:13;99007.78;;;40.36;47.75
64294;BME280;50636;45.596;5.258;2023-07-13T11:18:53;99003.03;;;40.07;45.54
64294;BME280;50636;45.596;5.258;2023-07-13T11:21:33;99000.66;;;40.06;49.67
64294;BME280;50636;45.596;5.258;2023-07-13T11:24:03;98993.63;;;40.19;52.17
64294;BME280;50636;45.596;5.258;2023-07-13T11:31:55;98991.91;;;39.53;44.24
64294;BME280;50636;45.596;5.258;2023-07-13T11:34:27;98986.41;;;39.46;47.61
64294;BME280;50636;45.596;5.258;2023-07-13T11:36:54;99006.88;;;39.67;45.00
64294;BME280;50636;45.596;5.258;2023-07-13T11:39:23;99008.53;;;39.97;48.14
64294;BME280;50636;45.596;5.258;2023-07-13T11:41:55;99001.06;;;40.04;45.49
64294;BME280;50636;45.596;5.258;2023-07-13T11:44:23;98992.75;;;39.79;43.52
64294;BME280;50636;45.596;5.258;2023-07-13T11:46:50;98989.59;;;39.73;41.96
64294;BME280;50636;45.596;5.258;2023-07-13T11:49:17;98980.56;;;39.80;43.68
64294;BME280;50636;45.596;5.258;2023-07-13T11:51:43;98984.47;;;39.50;40.84
64294;BME280;50636;45.596;5.258;2023-07-13T11:54:23;98973.00;;;39.41;43.22
64294;BME280;50636;45.596;5.258;2023-07-13T11:56:49;98971.09;;;39.45;36.36
64294;BME280;50636;45.596;5.258;2023-07-13T11:59:15;98969.84;;;39.35;40.24
64294;BME280;50636;45.596;5.258;2023-07-13T12:01:49;98962.16;;;38.89;42.23
64294;BME280;50636;45.596;5.258;2023-07-13T12:04:24;98952.47;;;37.95;46.38
64294;BME280;50636;45.596;5.258;2023-07-13T12:07:07;98947.16;;;38.13;40.75
64294;BME280;50636;45.596;5.258;2023-07-13T12:09:39;98947.34;;;37.94;44.14
64294;BME280;50636;45.596;5.258;2023-07-13T12:12:09;98951.97;;;37.86;48.00
64294;BME280;50636;45.596;5.258;2023-07-13T12:14:35;98944.53;;;37.83;48.63
64294;BME280;50636;45.596;5.258;2023-07-13T12:17:01;98942.56;;;37.84;45.49
64294;BME280;50636;45.596;5.258;2023-07-13T12:19:27;98950.78;;;37.84;49.64
64294;BME280;50636;45.596;5.258;2023-07-13T12:21:55;98949.88;;;37.72;44.94
64294;BME280;50636;45.596;5.258;2023-07-13T12:24:21;98950.38;;;37.82;47.67
64294;BME280;50636;45.596;5.258;2023-07-13T12:27:06;98949.97;;;37.80;45.31
64294;BME280;50636;45.596;5.258;2023-07-13T12:29:32;98947.22;;;37.80;47.30
64294;BME280;50636;45.596;5.258;2023-07-13T12:31:57;98949.50;;;38.11;49.81
64294;BME280;50636;45.596;5.258;2023-07-13T12:34:24;98944.16;;;38.33;46.43
64294;BME280;50636;45.596;5.258;2023-07-13T12:39:22;98953.94;;;37.86;39.37
64294;BME280;50636;45.596;5.258;2023-07-13T12:41:49;98949.84;;;37.65;41.07
64294;BME280;50636;45.596;5.258;2023-07-13T12:44:16;98949.84;;;37.69;42.83
64294;BME280;50636;45.596;5.258;2023-07-13T12:46:52;98941.16;;;37.60;43.64
64294;BME280;50636;45.596;5.258;2023-07-13T12:49:18;98937.66;;;37.59;45.43
64294;BME280;50636;45.596;5.258;2023-07-13T12:51:49;98934.78;;;37.52;46.81
64294;BME280;50636;45.596;5.258;2023-07-13T12:54:16;98943.72;;;37.11;50.70
64294;BME280;50636;45.596;5.258;2023-07-13T12:56:42;98941.22;;;36.72;41.94
64294;BME280;50636;45.596;5.258;2023-07-13T12:59:08;98933.00;;;36.46;43.03
64294;BME280;50636;45.596;5.258;2023-07-13T13:01:38;98945.81;;;36.15;41.66
64294;BME280;50636;45.596;5.258;2023-07-13T13:04:03;98938.91;;;36.02;42.41
64294;BME280;50636;45.596;5.258;2023-07-13T13:06:32;98936.06;;;35.71;34.38
64294;BME280;50636;45.596;5.258;2023-07-13T13:08:58;98951.03;;;35.03;34.62
64294;BME280;50636;45.596;5.258;2023-07-13T13:11:24;98936.03;;;34.58;40.76
64294;BME280;50636;45.596;5.258;2023-07-13T13:13:51;98944.47;;;34.05;43.84
64294;BME280;50636;45.596;5.258;2023-07-13T13:18:42;98941.06;;;33.64;44.67
64294;BME280;50636;45.596;5.258;2023-07-13T13:21:09;98935.97;;;33.34;42.77
64294;BME280;50636;45.596;5.258;2023-07-13T13:23:34;98926.91;;;32.77;36.22
64294;BME280;50636;45.596;5.258;2023-07-13T13:26:00;98950.56;;;32.28;34.14
64294;BME280;50636;45.596;5.258;2023-07-13T13:28:26;98951.31;;;32.03;36.81
64294;BME280;50636;45.596;5.258;2023-07-13T13:30:51;98945.84;;;31.91;40.75
64294;BME280;50636;45.596;5.258;2023-07-13T13:33:18;98956.72;;;31.91;46.63
64294;BME280;50636;45.596;5.258;2023-07-13T13:35:44;98951.81;;;31.72;47.24
64294;BME280;50636;45.596;5.258;2023-07-13T13:38:12;98946.47;;;31.63;42.46
64294;BME280;50636;45.596;5.258;2023-07-13T13:40:39;98935.78;;;31.79;40.10
64294;BME280;50636;45.596;5.258;2023-07-13T13:43:12;98940.97;;;31.84;43.28